Time;durP1;ratioP1;P1;durP2;ratioP2;P2;SDS_P1;SDS_P2;PMS_P1;PMS_P2;Temp;Humidity;BMP_temperature;BMP_pressure;BME280_temperature;BME280_humidity;BME280_pressure;Samples;Min_cycle;Max_cycle;Signal;HPM_P1;HPM_P2
2023/01/11 00:00:44;;;;;;;5.60;1.35;;;10.60;99.90;;;;;;4930222;29;20055;-73
2023/01/11 00:03:11;;;;;;;7.75;1.45;;;10.70;99.90;;;;;;4931219;29;20048;-77
2023/01/11 00:05:41;;;;;;;10.77;3.03;;;10.60;99.90;;;;;;4915006;29;20078;-76
2023/01/11 00:08:08;;;;;;;13.73;1.60;;;10.60;99.90;;;;;;4931308;29;20589;-76
2023/01/11 00:10:35;;;;;;;8.93;2.35;;;10.60;99.90;;;;;;4930553;29;20314;-76
2023/01/11 00:13:02;;;;;;;8.90;1.80;;;10.60;99.90;;;;;;4930524;29;20094;-77
2023/01/11 00:15:29;;;;;;;9.80;1.80;;;10.60;99.90;;;;;;4935517;29;20047;-77
2023/01/11 00:17:56;;;;;;;8.80;1.17;;;10.60;99.90;;;;;;4918100;29;20110;-76
2023/01/11 00:20:23;;;;;;;7.97;1.50;;;10.60;99.90;;;;;;4918446;29;20051;-75
2023/01/11 00:22:50;;;;;;;10.40;2.55;;;10.60;99.90;;;;;;4934686;29;20523;-77
2023/01/11 00:25:17;;;;;;;7.40;1.55;;;10.60;99.90;;;;;;4935252;29;20051;-77
2023/01/11 00:27:46;;;;;;;5.97;1.67;;;10.60;99.90;;;;;;4934590;29;20135;-77
2023/01/11 00:30:12;;;;;;;9.55;1.48;;;10.60;99.90;;;;;;4917077;29;20047;-75
2023/01/11 00:32:39;;;;;;;18.27;2.35;;;10.60;99.90;;;;;;4917225;29;20068;-77
2023/01/11 00:35:07;;;;;;;8.60;1.67;;;10.60;99.90;;;;;;4935126;29;20052;-77
2023/01/11 00:37:33;;;;;;;16.00;1.83;;;10.50;99.90;;;;;;4934779;29;20512;-77
2023/01/11 00:40:00;;;;;;;8.52;1.73;;;10.60;99.90;;;;;;4935502;29;20043;-77
2023/01/11 00:48:03;;;;;;;7.03;1.20;;;10.50;99.90;;;;;;4932256;29;20069;-77
2023/01/11 00:50:34;;;;;;;10.30;1.98;;;10.50;99.90;;;;;;4938084;29;20051;-77
2023/01/11 00:53:01;;;;;;;10.80;1.35;;;10.50;99.90;;;;;;4921385;29;20135;-77
2023/01/11 00:55:28;;;;;;;12.05;1.77;;;10.50;99.90;;;;;;4932380;29;20055;-77
2023/01/11 00:57:54;;;;;;;10.35;1.85;;;10.50;99.90;;;;;;4934741;29;20347;-77
2023/01/11 01:00:21;;;;;;;12.57;1.88;;;10.50;99.90;;;;;;4934087;29;20051;-76
2023/01/11 01:02:48;;;;;;;11.35;1.35;;;10.40;99.90;;;;;;4934461;29;20235;-77
2023/01/11 01:05:15;;;;;;;10.75;1.30;;;10.40;99.90;;;;;;4934212;29;20052;-76
2023/01/11 01:07:42;;;;;;;8.35;3.42;;;10.40;99.90;;;;;;4934484;29;20055;-76
2023/01/11 01:10:10;;;;;;;15.60;2.58;;;10.30;99.90;;;;;;4934315;29;20111;-76
2023/01/11 01:15:22;;;;;;;10.32;1.60;;;10.20;99.90;;;;;;4934067;29;20586;-76
2023/01/11 01:17:52;;;;;;;13.13;2.17;;;10.20;99.90;;;;;;4934265;29;20075;-76
2023/01/11 01:20:20;;;;;;;11.40;1.35;;;10.20;99.90;;;;;;4917120;29;20442;-74
2023/01/11 01:22:46;;;;;;;17.38;2.20;;;10.10;99.90;;;;;;4934832;29;20518;-76
2023/01/11 01:25:13;;;;;;;12.02;2.05;;;10.10;99.90;;;;;;4935650;29;20138;-77
2023/01/11 01:27:40;;;;;;;23.83;3.00;;;10.10;99.90;;;;;;4931390;29;20044;-75
2023/01/11 01:30:07;;;;;;;17.90;2.75;;;10.10;99.90;;;;;;4936101;29;20051;-76
2023/01/11 01:32:34;;;;;;;12.82;3.22;;;10.20;99.90;;;;;;4936886;29;20396;-76
2023/01/11 01:35:01;;;;;;;24.02;5.93;;;10.10;99.90;;;;;;4936428;29;20131;-75
2023/01/11 01:37:28;;;;;;;8.45;1.63;;;10.10;99.90;;;;;;4935364;29;20047;-76
2023/01/11 01:39:54;;;;;;;14.23;1.52;;;10.00;99.90;;;;;;4934056;29;20201;-76
2023/01/11 01:42:22;;;;;;;15.80;2.08;;;10.00;99.90;;;;;;4933447;29;20487;-76
2023/01/11 01:44:53;;;;;;;15.73;2.28;;;10.00;99.90;;;;;;4933332;29;20064;-75
2023/01/11 01:47:29;;;;;;;12.32;2.25;;;10.00;99.90;;;;;;4933544;29;20048;-76
2023/01/11 01:49:57;;;;;;;15.77;2.35;;;10.00;99.90;;;;;;4916330;29;20062;-75
2023/01/11 01:52:27;;;;;;;8.98;1.75;;;9.90;99.90;;;;;;4916623;29;20134;-76
2023/01/11 01:54:56;;;;;;;9.32;2.42;;;9.90;99.90;;;;;;4917161;29;20087;-75
2023/01/11 01:57:25;;;;;;;19.52;1.83;;;9.90;99.90;;;;;;4915729;29;20077;-75
2023/01/11 01:59:51;;;;;;;17.27;3.05;;;9.90;99.90;;;;;;4933510;29;20135;-75
2023/01/11 02:02:19;;;;;;;23.88;2.33;;;9.80;99.90;;;;;;4583330;29;10000539;-75
2023/01/11 02:04:46;;;;;;;11.75;2.03;;;9.80;99.90;;;;;;4930829;29;20063;-77
2023/01/11 02:07:18;;;;;;;15.80;1.80;;;9.80;99.90;;;;;;4915838;29;20043;-76
2023/01/11 02:10:12;;;;;;;10.70;1.92;;;9.80;99.90;;;;;;4897591;29;20055;-75
2023/01/11 02:12:40;;;;;;;7.28;1.83;;;9.80;99.90;;;;;;4930617;29;20063;-76
2023/01/11 02:15:09;;;;;;;11.70;2.40;;;9.70;99.90;;;;;;4916215;29;20492;-75
2023/01/11 02:17:35;;;;;;;12.93;1.80;;;9.60;99.90;;;;;;4932669;29;20138;-75
2023/01/11 02:20:11;;;;;;;15.68;2.30;;;9.60;99.90;;;;;;4929019;29;20499;-75
2023/01/11 02:22:50;;;;;;;7.03;1.67;;;9.60;99.90;;;;;;4932412;29;20406;-75
2023/01/11 02:25:19;;;;;;;12.02;4.07;;;9.60;99.90;;;;;;4914269;29;20052;-75
2023/01/11 02:28:15;;;;;;;25.05;2.72;;;9.60;99.90;;;;;;4928148;29;20074;-76
2023/01/11 02:30:54;;;;;;;7.88;1.95;;;9.50;99.90;;;;;;4932476;29;20510;-76
2023/01/11 02:33:22;;;;;;;9.68;1.75;;;9.50;99.90;;;;;;4918459;29;20082;-76
2023/01/11 02:36:03;;;;;;;13.25;3.05;;;9.50;99.90;;;;;;4914957;29;20047;-76
2023/01/11 02:38:40;;;;;;;15.20;2.75;;;9.40;99.90;;;;;;4931850;29;20054;-75
2023/01/11 02:45:00;;;;;;;17.58;2.03;;;9.40;99.90;;;;;;4900319;29;20066;-76
2023/01/11 02:47:02;;;;;;;15.18;2.65;;;9.40;99.90;;;;;;4904917;29;20043;-76
2023/01/11 02:49:56;;;;;;;16.48;2.45;;;9.40;99.90;;;;;;4900095;29;20143;-76
2023/01/11 02:52:25;;;;;;;15.90;3.30;;;9.30;99.90;;;;;;4915525;29;20048;-75
2023/01/11 02:54:54;;;;;;;13.50;2.50;;;9.40;99.90;;;;;;4915521;29;20059;-74
2023/01/11 02:57:21;;;;;;;11.80;3.47;;;9.30;99.90;;;;;;4899999;29;20056;-75
2023/01/11 02:59:48;;;;;;;13.65;3.05;;;9.30;99.90;;;;;;4915393;29;20043;-75
2023/01/11 03:02:18;;;;;;;21.48;4.57;;;9.30;99.90;;;;;;4915296;29;20138;-77
2023/01/11 03:04:44;;;;;;;21.77;2.78;;;9.30;99.90;;;;;;4931080;29;20051;-75
2023/01/11 03:07:41;;;;;;;11.40;2.70;;;9.30;99.90;;;;;;4929602;29;20146;-76
2023/01/11 03:10:17;;;;;;;19.77;3.05;;;9.30;99.90;;;;;;4910127;29;20597;-76
2023/01/11 03:12:59;;;;;;;14.65;2.53;;;9.20;99.90;;;;;;4928977;29;20056;-75
2023/01/11 03:15:54;;;;;;;10.73;2.63;;;9.30;99.90;;;;;;4929290;29;20110;-75
2023/01/11 03:18:47;;;;;;;19.85;3.17;;;9.20;99.90;;;;;;4912309;29;20093;-75
2023/01/11 03:21:23;;;;;;;14.70;2.08;;;9.20;99.90;;;;;;4928831;29;20048;-75
2023/01/11 03:24:15;;;;;;;16.50;2.30;;;9.20;99.90;;;;;;4928676;29;20079;-75
2023/01/11 03:26:57;;;;;;;21.98;2.92;;;9.10;99.90;;;;;;4929383;29;20048;-74
2023/01/11 03:29:30;;;;;;;17.67;3.47;;;9.20;99.90;;;;;;4928624;29;20375;-75
2023/01/11 03:32:06;;;;;;;18.08;2.70;;;9.10;99.90;;;;;;4928913;29;20418;-75
2023/01/11 03:34:34;;;;;;;16.08;2.45;;;9.10;99.90;;;;;;4928755;29;20062;-75
2023/01/11 03:37:09;;;;;;;16.13;2.28;;;9.10;99.90;;;;;;4912410;29;20131;-75
2023/01/11 03:39:51;;;;;;;9.88;2.50;;;9.10;99.90;;;;;;4893557;29;20047;-75
2023/01/11 03:42:19;;;;;;;21.08;3.05;;;9.10;99.90;;;;;;4930644;29;20401;-76
2023/01/11 03:44:47;;;;;;;19.45;3.03;;;9.00;99.90;;;;;;4892678;29;20048;-76
2023/01/11 03:47:15;;;;;;;20.35;2.13;;;9.00;99.90;;;;;;4929155;28;20588;-76
2023/01/11 03:49:41;;;;;;;18.83;3.55;;;9.00;99.90;;;;;;4896034;29;20336;-75
2023/01/11 03:52:11;;;;;;;13.90;2.30;;;9.00;99.90;;;;;;4928287;29;20047;-76
2023/01/11 03:54:38;;;;;;;15.50;2.35;;;8.90;99.90;;;;;;4896449;29;20102;-75
2023/01/11 03:57:16;;;;;;;17.83;2.22;;;8.90;99.90;;;;;;4928733;29;20511;-74
2023/01/11 03:59:43;;;;;;;20.30;2.80;;;8.90;99.90;;;;;;4895820;29;20051;-74
2023/01/11 04:02:20;;;;;;;11.95;2.95;;;8.80;99.90;;;;;;4912051;29;20041;-75
2023/01/11 04:04:47;;;;;;;19.50;2.55;;;8.80;99.90;;;;;;4926785;29;20055;-74
2023/01/11 04:07:14;;;;;;;13.80;2.95;;;8.80;99.90;;;;;;4908614;29;20135;-75
2023/01/11 04:09:41;;;;;;;16.00;3.03;;;8.80;99.90;;;;;;4912270;29;20078;-75
2023/01/11 04:12:11;;;;;;;13.60;3.05;;;8.80;99.90;;;;;;4912880;29;20074;-74
2023/01/11 04:14:38;;;;;;;25.02;2.97;;;8.80;99.90;;;;;;4913373;29;20527;-75
2023/01/11 04:17:05;;;;;;;16.67;2.45;;;8.70;99.90;;;;;;4931495;29;20047;-75
2023/01/11 04:19:31;;;;;;;15.90;2.22;;;8.70;99.90;;;;;;4933072;29;20055;-74
2023/01/11 04:21:58;;;;;;;27.55;3.22;;;8.70;99.90;;;;;;4933481;29;20063;-74
2023/01/11 04:24:25;;;;;;;15.13;3.28;;;8.70;99.90;;;;;;4916847;29;20095;-74
2023/01/11 04:26:51;;;;;;;11.63;2.58;;;8.70;99.90;;;;;;4933775;29;20513;-73
2023/01/11 04:29:18;;;;;;;15.82;2.58;;;8.60;99.90;;;;;;4932793;29;20058;-73
2023/01/11 04:31:45;;;;;;;16.60;3.03;;;8.60;99.90;;;;;;4932350;29;20056;-74
2023/01/11 04:34:12;;;;;;;18.08;3.45;;;8.60;99.90;;;;;;4931554;29;20447;-73
2023/01/11 04:36:39;;;;;;;16.35;2.92;;;8.60;99.90;;;;;;4930985;29;20423;-74
2023/01/11 04:39:09;;;;;;;18.30;2.85;;;8.60;99.90;;;;;;4931127;29;20054;-74
2023/01/11 04:44:22;;;;;;;16.33;2.67;;;8.60;99.90;;;;;;4931325;29;20070;-74
2023/01/11 04:46:49;;;;;;;19.55;2.47;;;8.50;99.90;;;;;;4914088;29;20472;-73
2023/01/11 04:49:16;;;;;;;22.95;4.03;;;8.50;99.90;;;;;;4914202;29;20050;-74
2023/01/11 04:51:42;;;;;;;16.25;2.60;;;8.50;99.90;;;;;;4930677;29;20047;-74
2023/01/11 04:54:09;;;;;;;15.40;2.22;;;8.50;99.90;;;;;;4911337;29;20048;-74
2023/01/11 04:56:36;;;;;;;16.65;2.92;;;8.50;99.90;;;;;;4918262;29;20051;-75
2023/01/11 04:59:02;;;;;;;20.00;3.30;;;8.50;99.90;;;;;;4935852;29;20039;-75
2023/01/11 05:01:29;;;;;;;14.93;2.67;;;8.50;99.90;;;;;;4939097;29;20136;-75
2023/01/11 05:03:56;;;;;;;21.52;3.80;;;8.50;99.90;;;;;;4934659;29;20119;-74
2023/01/11 05:06:23;;;;;;;9.82;2.75;;;8.40;99.90;;;;;;4934240;29;20283;-74
2023/01/11 05:08:50;;;;;;;17.40;3.30;;;8.50;99.90;;;;;;4934607;29;20044;-75
2023/01/11 05:11:16;;;;;;;21.58;2.83;;;8.40;99.90;;;;;;4934420;29;20054;-75
2023/01/11 05:13:44;;;;;;;24.90;2.92;;;8.40;99.90;;;;;;4933884;29;20070;-73
2023/01/11 05:16:18;;;;;;;23.13;3.45;;;8.40;99.90;;;;;;4934501;29;20051;-73
2023/01/11 05:18:47;;;;;;;15.20;2.58;;;8.30;99.90;;;;;;4934226;29;20060;-74
2023/01/11 05:21:16;;;;;;;17.23;3.53;;;8.30;99.90;;;;;;4917451;29;20232;-70
2023/01/11 05:23:42;;;;;;;18.02;2.63;;;8.30;99.90;;;;;;4917490;29;20082;-73
2023/01/11 05:26:12;;;;;;;20.73;3.45;;;8.30;99.90;;;;;;4934334;29;20074;-73
2023/01/11 05:28:39;;;;;;;26.70;4.70;;;8.30;99.90;;;;;;4916769;29;20126;-73
2023/01/11 05:31:06;;;;;;;15.95;3.13;;;8.20;99.90;;;;;;4933762;29;20130;-73
2023/01/11 05:33:32;;;;;;;15.18;2.78;;;8.20;99.90;;;;;;4933553;29;20052;-73
2023/01/11 05:36:00;;;;;;;18.20;2.80;;;8.20;99.90;;;;;;4934054;29;20066;-74
2023/01/11 05:38:27;;;;;;;32.40;4.07;;;8.20;99.90;;;;;;4933563;29;20047;-73
2023/01/11 05:41:02;;;;;;;21.92;2.83;;;8.20;99.90;;;;;;4933835;29;20074;-73
2023/01/11 05:43:28;;;;;;;26.55;4.70;;;8.20;99.90;;;;;;4933353;29;20132;-73
2023/01/11 05:45:56;;;;;;;28.95;7.13;;;8.10;99.90;;;;;;4916854;29;20059;-74
2023/01/11 05:48:23;;;;;;;20.90;4.10;;;8.10;99.90;;;;;;4933420;29;20321;-74
2023/01/11 05:50:53;;;;;;;14.65;2.95;;;8.20;99.90;;;;;;4916654;29;20055;-74
2023/01/11 05:53:21;;;;;;;11.52;2.45;;;8.20;99.90;;;;;;4933453;29;20122;-73
2023/01/11 05:55:52;;;;;;;22.95;3.60;;;8.20;99.90;;;;;;4933498;29;20052;-74
2023/01/11 05:58:19;;;;;;;15.57;4.30;;;8.20;99.90;;;;;;4916452;29;20048;-74
2023/01/11 06:00:49;;;;;;;20.10;3.55;;;8.20;99.90;;;;;;4933235;29;20094;-73
2023/01/11 06:03:16;;;;;;;20.83;2.88;;;8.20;99.90;;;;;;4933109;29;20057;-73
2023/01/11 06:05:46;;;;;;;17.45;3.33;;;8.20;99.90;;;;;;4916427;29;20506;-74
2023/01/11 06:08:13;;;;;;;17.15;2.78;;;8.20;99.90;;;;;;4933518;29;20139;-73
2023/01/11 06:10:40;;;;;;;22.70;5.32;;;8.20;99.90;;;;;;4932446;29;20055;-73
2023/01/11 06:16:05;;;;;;;17.77;3.08;;;8.20;99.90;;;;;;4912852;29;20567;-73
2023/01/11 06:18:36;;;;;;;19.45;2.65;;;8.20;99.90;;;;;;4933337;29;20074;-74
2023/01/11 06:21:03;;;;;;;23.67;4.32;;;8.20;99.90;;;;;;4932595;29;20130;-73
2023/01/11 06:23:30;;;;;;;33.95;3.80;;;8.30;99.90;;;;;;4932890;29;20047;-74
2023/01/11 06:26:01;;;;;;;11.20;2.70;;;8.30;99.90;;;;;;4932575;29;20495;-74
2023/01/11 06:28:27;;;;;;;31.75;2.97;;;8.20;99.90;;;;;;4932948;29;20073;-74
2023/01/11 06:30:55;;;;;;;17.45;3.80;;;8.20;99.90;;;;;;4915376;29;20084;-74
2023/01/11 06:33:22;;;;;;;20.17;2.70;;;8.20;99.90;;;;;;4932554;29;20079;-73
2023/01/11 06:35:49;;;;;;;23.63;5.95;;;8.30;99.90;;;;;;4915579;29;20048;-73
2023/01/11 06:38:16;;;;;;;23.48;4.35;;;8.30;99.90;;;;;;4932606;29;20126;-76
2023/01/11 06:40:50;;;;;;;21.73;3.00;;;8.30;99.90;;;;;;4932610;29;20051;-76
2023/01/11 06:43:17;;;;;;;28.40;3.47;;;8.30;99.90;;;;;;4916566;29;20319;-71
2023/01/11 06:45:44;;;;;;;19.52;3.50;;;8.30;99.90;;;;;;4932014;29;20143;-72
2023/01/11 06:48:10;;;;;;;23.50;2.92;;;8.20;99.90;;;;;;4932257;29;20439;-71
2023/01/11 06:50:37;;;;;;;20.95;4.47;;;8.20;99.90;;;;;;4931615;29;20071;-72
2023/01/11 06:53:04;;;;;;;16.05;4.53;;;8.20;99.90;;;;;;4932509;29;20419;-73
2023/01/11 06:55:31;;;;;;;20.27;3.33;;;8.20;99.90;;;;;;4931963;29;20054;-73
2023/01/11 06:57:58;;;;;;;21.98;2.60;;;8.20;99.90;;;;;;4931329;29;20063;-71
2023/01/11 07:00:25;;;;;;;22.85;3.15;;;8.20;99.90;;;;;;4932098;29;20043;-72
2023/01/11 07:02:52;;;;;;;23.98;3.10;;;8.10;99.90;;;;;;4931914;29;20075;-72
2023/01/11 07:05:21;;;;;;;22.75;3.47;;;8.10;99.90;;;;;;4932099;29;20242;-74
2023/01/11 07:07:48;;;;;;;20.98;3.03;;;8.10;99.90;;;;;;4931564;29;20134;-72
2023/01/11 07:10:15;;;;;;;17.52;3.10;;;8.10;99.90;;;;;;4931758;29;20541;-74
2023/01/11 07:12:42;;;;;;;23.58;3.30;;;8.10;99.90;;;;;;4929618;29;20054;-74
2023/01/11 07:15:09;;;;;;;18.80;3.40;;;8.00;99.90;;;;;;4931902;29;20534;-73
2023/01/11 07:17:36;;;;;;;16.08;3.05;;;8.00;99.90;;;;;;4903688;29;20503;-74
2023/01/11 07:20:04;;;;;;;21.10;5.80;;;8.00;99.90;;;;;;4913758;29;20135;-73
2023/01/11 07:22:34;;;;;;;17.30;3.40;;;8.00;99.90;;;;;;4930689;29;20055;-74
2023/01/11 07:25:02;;;;;;;25.25;3.20;;;8.00;99.90;;;;;;4930328;29;20070;-73
2023/01/11 07:27:29;;;;;;;17.70;2.50;;;8.00;99.90;;;;;;4932794;29;20048;-74
2023/01/11 07:29:58;;;;;;;13.05;2.55;;;8.00;99.90;;;;;;4934168;29;20056;-74
2023/01/11 07:32:26;;;;;;;23.63;4.00;;;8.00;99.90;;;;;;4917018;29;20164;-73
2023/01/11 07:34:54;;;;;;;20.13;2.80;;;8.00;99.90;;;;;;4934034;29;20048;-73
2023/01/11 07:37:21;;;;;;;23.35;5.35;;;8.00;99.90;;;;;;4931387;29;20150;-72
2023/01/11 07:39:54;;;;;;;23.70;3.00;;;8.00;99.90;;;;;;4915811;29;20047;-73
2023/01/11 07:45:07;;;;;;;17.20;3.58;;;8.00;99.90;;;;;;4930834;29;20056;-73
2023/01/11 07:47:34;;;;;;;30.75;2.80;;;8.00;99.90;;;;;;4929611;29;20067;-74
2023/01/11 07:50:01;;;;;;;25.73;3.97;;;8.00;99.90;;;;;;4930270;29;20044;-73
2023/01/11 07:52:27;;;;;;;24.20;2.90;;;8.00;99.90;;;;;;4913612;29;20058;-72
2023/01/11 07:54:54;;;;;;;19.17;3.42;;;8.00;99.90;;;;;;4931094;29;20526;-72
2023/01/11 07:57:21;;;;;;;17.70;3.90;;;8.10;99.90;;;;;;4589930;28;10000133;-72
2023/01/11 07:59:48;;;;;;;15.55;2.55;;;8.10;99.90;;;;;;4928511;29;20048;-73
2023/01/11 08:02:14;;;;;;;15.57;2.58;;;8.10;99.90;;;;;;4926910;29;20059;-73
2023/01/11 08:04:41;;;;;;;18.52;3.20;;;8.10;99.90;;;;;;4926598;29;20069;-73
2023/01/11 08:07:08;;;;;;;14.55;3.42;;;8.10;99.90;;;;;;4927785;29;20055;-73
2023/01/11 08:09:35;;;;;;;15.98;2.92;;;8.10;99.90;;;;;;4927330;29;20055;-72
2023/01/11 08:14:47;;;;;;;12.40;3.10;;;8.10;99.90;;;;;;4927533;29;20332;-72
2023/01/11 08:17:14;;;;;;;23.45;4.25;;;8.10;99.90;;;;;;4928519;29;20059;-73
2023/01/11 08:19:41;;;;;;;7.18;1.90;;;8.10;99.90;;;;;;4928186;29;20348;-73
2023/01/11 08:22:08;;;;;;;19.63;3.63;;;8.10;99.90;;;;;;4927579;29;20075;-73
2023/01/11 08:24:35;;;;;;;17.17;3.60;;;8.10;99.90;;;;;;4928036;29;20047;-73
2023/01/11 08:27:02;;;;;;;13.32;2.63;;;8.10;99.90;;;;;;4927810;29;20498;-72
2023/01/11 08:29:29;;;;;;;15.02;3.13;;;8.10;99.90;;;;;;4910153;29;20070;-73
2023/01/11 08:31:56;;;;;;;13.65;2.25;;;8.10;99.90;;;;;;4925984;29;20114;-72
2023/01/11 08:34:23;;;;;;;14.77;3.53;;;8.20;99.90;;;;;;4911534;29;20044;-72
2023/01/11 08:36:49;;;;;;;27.10;6.00;;;8.20;99.90;;;;;;4931356;29;20047;-71
2023/01/11 08:39:16;;;;;;;14.43;4.25;;;8.10;99.90;;;;;;4930592;29;20143;-73
2023/01/11 08:41:43;;;;;;;19.55;5.07;;;8.20;99.90;;;;;;4928596;29;20761;-73
2023/01/11 08:44:10;;;;;;;16.67;4.00;;;8.10;99.90;;;;;;4932255;29;20050;-73
2023/01/11 08:46:37;;;;;;;14.85;2.63;;;8.20;99.90;;;;;;4931835;29;20059;-72
2023/01/11 08:49:10;;;;;;;12.48;2.50;;;8.10;99.90;;;;;;4931901;29;20047;-72
2023/01/11 08:51:39;;;;;;;16.45;3.20;;;8.20;99.90;;;;;;4931795;29;20044;-73
2023/01/11 08:54:08;;;;;;;19.10;3.13;;;8.20;99.90;;;;;;4932133;29;20547;-72
2023/01/11 08:56:35;;;;;;;16.05;4.93;;;8.20;99.90;;;;;;4897895;29;20613;-73
2023/01/11 08:59:08;;;;;;;18.02;2.50;;;8.20;99.90;;;;;;4928637;29;20043;-72
2023/01/11 09:01:34;;;;;;;22.50;3.20;;;8.10;99.90;;;;;;4913758;29;20054;-74
2023/01/11 09:04:01;;;;;;;23.17;3.63;;;8.10;99.90;;;;;;4930943;29;20048;-72
2023/01/11 09:06:41;;;;;;;14.52;2.65;;;8.10;99.90;;;;;;4931542;28;20051;-72
2023/01/11 09:09:08;;;;;;;16.90;2.50;;;8.10;99.90;;;;;;4932071;29;20140;-73
2023/01/11 09:11:53;;;;;;;19.23;2.42;;;8.10;99.90;;;;;;4930711;29;20063;-72
2023/01/11 09:14:20;;;;;;;25.13;4.20;;;8.10;99.90;;;;;;4926076;29;20127;-72
2023/01/11 09:16:47;;;;;;;19.58;3.05;;;8.10;99.90;;;;;;4930925;29;20135;-72
2023/01/11 09:19:14;;;;;;;20.77;3.05;;;8.10;99.90;;;;;;4931101;29;20059;-72
2023/01/11 09:21:41;;;;;;;17.50;3.15;;;8.10;99.90;;;;;;4930922;29;20130;-73
2023/01/11 09:24:08;;;;;;;11.93;2.70;;;8.10;99.90;;;;;;4931730;29;20357;-73
2023/01/11 09:26:36;;;;;;;21.52;3.65;;;8.00;99.90;;;;;;4932782;29;20242;-73
2023/01/11 09:29:03;;;;;;;16.60;2.50;;;8.00;99.90;;;;;;4932047;29;20043;-72
2023/01/11 09:31:30;;;;;;;17.35;3.08;;;8.10;99.90;;;;;;4916482;29;20443;-72
2023/01/11 09:33:57;;;;;;;20.17;3.38;;;8.10;99.90;;;;;;4933538;29;20039;-73
2023/01/11 09:36:26;;;;;;;27.25;5.93;;;8.10;99.90;;;;;;4933562;29;20055;-72
2023/01/11 09:38:56;;;;;;;19.58;2.97;;;8.20;99.90;;;;;;4916590;29;20043;-72
2023/01/11 09:41:40;;;;;;;15.23;3.08;;;8.30;99.90;;;;;;4930828;29;20499;-72
2023/01/11 09:44:15;;;;;;;22.45;3.60;;;8.30;99.90;;;;;;4915110;29;20388;-73
2023/01/11 09:46:43;;;;;;;28.65;7.88;;;8.30;99.90;;;;;;4913047;29;20570;-72
2023/01/11 09:49:33;;;;;;;27.23;5.78;;;8.30;99.90;;;;;;4914188;29;20055;-72
2023/01/11 09:52:25;;;;;;;15.23;3.40;;;8.30;99.90;;;;;;4928545;29;20166;-72
2023/01/11 09:54:51;;;;;;;22.23;4.40;;;8.40;99.90;;;;;;4918953;29;20407;-72
2023/01/11 09:57:42;;;;;;;20.27;2.90;;;8.50;99.90;;;;;;4930266;29;20527;-72
2023/01/11 10:00:10;;;;;;;13.70;3.03;;;8.50;99.90;;;;;;4937766;29;20074;-72
2023/01/11 10:03:02;;;;;;;18.13;3.15;;;8.60;99.90;;;;;;4930959;29;20357;-72
2023/01/11 10:06:05;;;;;;;11.57;2.75;;;8.60;99.90;;;;;;4932940;29;20226;-73
2023/01/11 10:08:46;;;;;;;13.60;4.45;;;8.60;99.90;;;;;;4934994;29;20047;-72
2023/01/11 10:11:48;;;;;;;25.13;2.30;;;8.80;99.90;;;;;;4930404;29;20434;-72
2023/01/11 10:14:41;;;;;;;18.98;2.60;;;8.80;99.90;;;;;;4929204;29;20051;-72
2023/01/11 10:17:36;;;;;;;18.20;3.65;;;8.80;99.90;;;;;;4918781;29;20139;-72
2023/01/11 10:20:27;;;;;;;20.80;3.70;;;8.90;99.90;;;;;;4915551;29;20408;-74
2023/01/11 10:23:03;;;;;;;20.15;2.63;;;9.00;99.90;;;;;;4900447;29;20130;-72
2023/01/11 10:25:39;;;;;;;20.02;3.10;;;9.00;99.90;;;;;;4912826;29;20054;-74
2023/01/11 10:28:16;;;;;;;21.08;2.53;;;9.00;99.90;;;;;;4914131;29;20048;-73
2023/01/11 10:39:20;;;;;;;15.13;2.47;;;9.00;99.90;;;;;;4898255;29;20414;-72
2023/01/11 10:42:01;;;;;;;17.13;2.30;;;9.10;99.90;;;;;;4911951;29;20203;-72
2023/01/11 10:45:01;;;;;;;11.90;2.47;;;9.10;99.90;;;;;;4913734;29;20554;-73
2023/01/11 10:47:36;;;;;;;9.25;2.17;;;9.10;99.90;;;;;;4914945;29;20059;-72
2023/01/11 10:50:21;;;;;;;18.08;3.10;;;9.10;99.90;;;;;;4913541;29;20460;-73
2023/01/11 10:52:54;;;;;;;13.48;2.88;;;9.10;99.90;;;;;;4929410;29;20066;-73
2023/01/11 10:55:43;;;;;;;14.20;2.25;;;9.20;99.90;;;;;;4897502;29;20055;-73
2023/01/11 10:58:26;;;;;;;17.02;2.55;;;9.20;99.90;;;;;;4913287;29;20057;-74
2023/01/11 11:01:07;;;;;;;16.70;2.70;;;9.20;99.90;;;;;;4922950;29;20054;-72
2023/01/11 11:03:43;;;;;;;13.88;3.00;;;9.30;99.90;;;;;;4914286;29;20048;-73
2023/01/11 11:06:37;;;;;;;18.35;3.15;;;9.30;99.90;;;;;;4928638;29;20056;-72
2023/01/11 11:09:16;;;;;;;15.48;2.42;;;9.30;99.90;;;;;;4927237;29;20052;-73
2023/01/11 11:11:52;;;;;;;13.25;2.25;;;9.40;99.90;;;;;;4927316;29;20048;-73
2023/01/11 11:14:20;;;;;;;17.88;2.50;;;9.40;99.90;;;;;;4909303;29;20340;-73
2023/01/11 11:16:56;;;;;;;11.90;2.70;;;9.50;99.90;;;;;;4911939;29;20044;-74
2023/01/11 11:19:24;;;;;;;10.27;1.80;;;9.40;99.90;;;;;;4926860;29;20055;-72
2023/01/11 11:21:51;;;;;;;8.50;1.67;;;9.50;99.90;;;;;;4895899;29;20048;-73
2023/01/11 11:24:20;;;;;;;15.95;2.80;;;9.50;99.90;;;;;;4928539;29;20062;-73
2023/01/11 11:26:52;;;;;;;9.35;1.98;;;9.60;99.90;;;;;;4912204;29;20150;-72
2023/01/11 11:29:21;;;;;;;15.15;3.75;;;9.60;99.90;;;;;;4928852;29;20051;-71
2023/01/11 11:31:48;;;;;;;13.23;2.50;;;9.60;99.90;;;;;;4928890;29;20044;-74
2023/01/11 11:34:16;;;;;;;11.30;1.95;;;9.70;99.90;;;;;;4911925;29;20060;-73
2023/01/11 11:36:50;;;;;;;13.73;1.83;;;9.70;99.90;;;;;;4911899;29;20476;-74
2023/01/11 11:39:21;;;;;;;8.50;1.75;;;9.70;99.90;;;;;;4912479;29;20064;-73
2023/01/11 11:41:49;;;;;;;15.82;2.22;;;9.70;99.90;;;;;;4896358;29;20130;-73
2023/01/11 11:44:23;;;;;;;10.18;2.33;;;9.80;99.90;;;;;;4928954;29;20404;-73
2023/01/11 11:47:13;;;;;;;6.90;1.85;;;9.90;99.90;;;;;;4928700;29;20503;-72
2023/01/11 11:49:41;;;;;;;7.75;1.88;;;9.80;99.90;;;;;;4928857;29;20043;-73
2023/01/11 11:52:12;;;;;;;8.13;1.52;;;9.90;99.90;;;;;;4911752;29;20114;-72
2023/01/11 11:54:51;;;;;;;10.23;1.63;;;9.90;99.90;;;;;;4929214;29;20054;-73
2023/01/11 11:57:18;;;;;;;24.20;2.95;;;10.00;99.90;;;;;;4896161;29;20467;-74
2023/01/11 11:59:46;;;;;;;9.38;2.17;;;9.90;99.90;;;;;;4928871;29;20048;-73
2023/01/11 12:02:34;;;;;;;11.02;2.58;;;9.90;99.90;;;;;;4911931;29;20527;-72
2023/01/11 12:05:08;;;;;;;9.63;1.30;;;10.00;99.90;;;;;;4931642;29;20062;-72
2023/01/11 12:07:35;;;;;;;;;;;10.00;99.90;;;;;;4915019;29;20052;-72
2023/01/11 12:10:22;;;;;;;10.13;2.05;;;10.00;99.90;;;;;;4926450;29;20017;-71
2023/01/11 12:12:54;;;;;;;9.43;2.03;;;10.00;99.90;;;;;;4913046;29;20260;-72
2023/01/11 12:15:24;;;;;;;9.95;2.72;;;10.10;99.90;;;;;;4913798;29;20051;-72
2023/01/11 12:17:51;;;;;;;8.88;1.90;;;10.10;99.90;;;;;;4927629;29;20084;-72
2023/01/11 12:20:20;;;;;;;11.60;1.90;;;10.10;99.90;;;;;;4893743;29;20051;-73
2023/01/11 12:22:48;;;;;;;10.02;1.63;;;10.10;99.90;;;;;;4926908;29;20047;-70
2023/01/11 12:25:23;;;;;;;6.07;1.17;;;10.10;99.90;;;;;;4929503;29;20059;-72
2023/01/11 12:28:04;;;;;;;11.13;1.65;;;10.10;99.90;;;;;;4929581;29;20103;-72
2023/01/11 12:30:37;;;;;;;10.52;2.03;;;10.10;99.90;;;;;;4910232;29;20048;-74
2023/01/11 12:33:13;;;;;;;5.13;1.40;;;10.20;99.90;;;;;;4927842;29;20087;-73
2023/01/11 12:36:06;;;;;;;17.10;1.52;;;10.20;99.90;;;;;;4919402;29;20512;-72
2023/01/11 12:39:07;;;;;;;13.63;1.92;;;10.20;99.90;;;;;;4914828;29;20074;-71
2023/01/11 12:41:43;;;;;;;12.68;1.95;;;10.20;99.90;;;;;;4931598;29;20130;-75
2023/01/11 12:44:32;;;;;;;9.38;1.70;;;10.30;99.90;;;;;;4915845;29;20043;-73
2023/01/11 12:47:21;;;;;;;12.77;2.28;;;10.40;99.90;;;;;;4919524;29;20480;-73
2023/01/11 12:50:10;;;;;;;17.10;2.50;;;10.30;99.90;;;;;;4934429;29;20054;-73
2023/01/11 12:52:46;;;;;;;7.53;1.73;;;10.40;99.90;;;;;;4920960;29;20043;-72
2023/01/11 12:55:21;;;;;;;14.43;2.10;;;10.40;99.90;;;;;;4930997;29;20062;-72
2023/01/11 12:57:58;;;;;;;15.07;1.83;;;10.50;99.90;;;;;;4918482;29;20336;-72
2023/01/11 13:00:59;;;;;;;11.93;2.03;;;10.50;99.90;;;;;;4930631;29;20167;-72
2023/01/11 13:03:47;;;;;;;7.78;2.33;;;10.60;99.90;;;;;;4930490;29;20047;-73
2023/01/11 13:06:43;;;;;;;14.88;1.88;;;10.60;99.90;;;;;;4913977;29;20052;-72
2023/01/11 13:09:22;;;;;;;16.27;2.22;;;10.60;99.90;;;;;;4915249;29;20051;-72
2023/01/11 13:12:03;;;;;;;13.32;2.55;;;10.60;99.90;;;;;;4894825;29;20051;-73
2023/01/11 13:14:48;;;;;;;13.73;2.25;;;10.60;99.90;;;;;;4930304;29;20107;-72
2023/01/11 13:17:43;;;;;;;9.52;2.17;;;10.60;99.90;;;;;;4930587;29;20132;-73
2023/01/11 13:20:32;;;;;;;15.40;3.17;;;10.60;99.90;;;;;;4913278;29;20083;-73
2023/01/11 13:23:22;;;;;;;19.35;2.72;;;10.60;99.90;;;;;;4934027;29;20044;-72
2023/01/11 13:25:48;;;;;;;18.58;3.38;;;10.50;99.90;;;;;;4898738;29;20051;-72
2023/01/11 13:28:29;;;;;;;22.42;3.67;;;10.60;99.90;;;;;;4901363;29;20050;-73
2023/01/11 13:30:56;;;;;;;13.07;2.30;;;10.60;99.90;;;;;;4917055;29;20054;-72
2023/01/11 13:33:23;;;;;;;12.60;2.72;;;10.60;99.90;;;;;;4916562;29;20047;-73
2023/01/11 13:36:01;;;;;;;13.15;2.30;;;10.70;99.90;;;;;;4917192;29;20055;-72
2023/01/11 13:38:40;;;;;;;14.20;2.58;;;10.70;99.90;;;;;;4918793;29;20056;-72
2023/01/11 13:41:21;;;;;;;14.80;2.97;;;10.70;99.90;;;;;;4916881;29;20071;-73